createdAt,value
2019-05-07T00:01:14.133Z,15.37
2019-05-07T00:03:46.001Z,13.50
2019-05-07T00:06:18.648Z,13.03
2019-05-07T00:08:52.282Z,14.73
2019-05-07T00:11:24.898Z,12.13
2019-05-07T00:13:58.141Z,10.70
2019-05-07T00:16:32.403Z,12.83
2019-05-07T00:19:03.795Z,9.57
2019-05-07T00:21:35.958Z,11.50
2019-05-07T00:24:10.207Z,10.83
2019-05-07T00:26:43.026Z,8.40
2019-05-07T00:29:15.563Z,13.13
2019-05-07T00:31:47.823Z,11.20
2019-05-07T00:34:21.959Z,11.47
2019-05-07T00:36:54.833Z,12.30
2019-05-07T00:39:28.116Z,16.57
2019-05-07T00:42:03.040Z,13.90
2019-05-07T00:44:36.540Z,10.33
2019-05-07T00:47:08.638Z,14.73
2019-05-07T00:49:42.541Z,12.13
2019-05-07T00:52:15.052Z,10.93
2019-05-07T00:54:47.046Z,14.63
2019-05-07T00:57:18.844Z,14.50
2019-05-07T00:59:52.507Z,13.90
2019-05-07T01:02:24.304Z,9.87
2019-05-07T01:04:56.472Z,13.90
2019-05-07T01:07:28.009Z,14.57
2019-05-07T01:10:02.013Z,9.77
2019-05-07T01:12:33.974Z,11.80
2019-05-07T01:15:06.907Z,10.00
2019-05-07T01:17:38.432Z,9.30
2019-05-07T01:20:12.435Z,12.33
2019-05-07T01:22:43.775Z,8.60
2019-05-07T01:25:16.432Z,8.67
2019-05-07T01:27:48.422Z,11.23
2019-05-07T01:30:20.047Z,11.33
2019-05-07T01:32:53.371Z,9.47
2019-05-07T01:35:27.381Z,9.73
2019-05-07T01:37:59.586Z,12.43
2019-05-07T01:40:32.588Z,11.03
2019-05-07T01:43:04.314Z,15.33
2019-05-07T01:45:46.369Z,8.30
2019-05-07T01:48:11.821Z,8.83
2019-05-07T01:50:43.011Z,9.17
2019-05-07T01:53:14.544Z,8.80
2019-05-07T01:55:46.008Z,5.40
2019-05-07T01:58:17.456Z,12.17
2019-05-07T02:00:49.113Z,8.40
2019-05-07T02:03:23.052Z,8.80
2019-05-07T02:05:56.427Z,5.77
2019-05-07T02:08:29.249Z,9.77
2019-05-07T02:11:02.262Z,6.70
2019-05-07T02:13:34.338Z,10.90
2019-05-07T02:16:05.755Z,10.10
2019-05-07T02:18:37.336Z,8.10
2019-05-07T02:21:09.622Z,9.77
2019-05-07T02:23:43.808Z,9.37
2019-05-07T02:26:15.213Z,9.57
2019-05-07T02:28:46.885Z,10.40
2019-05-07T02:31:18.029Z,8.20
2019-05-07T02:33:49.527Z,12.80
2019-05-07T02:36:23.712Z,11.90
2019-05-07T02:38:55.752Z,13.37
2019-05-07T02:41:28.600Z,7.87
2019-05-07T02:44:03.969Z,7.77
2019-05-07T02:46:36.377Z,8.97
2019-05-07T02:49:10.307Z,9.93
2019-05-07T02:51:43.818Z,12.30
2019-05-07T02:54:16.986Z,11.10
2019-05-07T02:56:48.178Z,10.97
2019-05-07T02:59:20.278Z,11.70
2019-05-07T03:01:53.694Z,13.33
2019-05-07T03:04:26.071Z,12.90
2019-05-07T03:06:58.740Z,10.47
2019-05-07T03:09:32.847Z,11.23
2019-05-07T03:12:07.835Z,7.67
2019-05-07T03:14:43.810Z,5.40
2019-05-07T03:17:14.227Z,8.40
2019-05-07T03:19:48.049Z,10.60
2019-05-07T03:22:23.052Z,10.13
2019-05-07T03:24:54.406Z,7.83
2019-05-07T03:27:26.065Z,9.30
2019-05-07T03:29:59.037Z,7.57
2019-05-07T03:32:38.107Z,8.20
2019-05-07T03:35:08.534Z,7.93
2019-05-07T03:37:40.307Z,7.00
2019-05-07T03:40:14.236Z,9.43
2019-05-07T03:42:44.869Z,7.87
2019-05-07T03:45:18.473Z,8.47
2019-05-07T03:47:54.124Z,11.20
2019-05-07T03:50:24.002Z,6.80
2019-05-07T03:52:55.731Z,8.03
2019-05-07T03:55:27.241Z,8.40
2019-05-07T03:57:58.542Z,7.90
2019-05-07T04:00:33.048Z,5.43
2019-05-07T04:03:03.674Z,5.60
2019-05-07T04:05:35.442Z,7.97
2019-05-07T04:08:06.689Z,5.80
2019-05-07T04:10:38.520Z,6.20
2019-05-07T04:13:13.244Z,7.67
2019-05-07T04:15:44.250Z,7.40
2019-05-07T04:18:16.328Z,6.07
2019-05-07T04:20:47.894Z,7.73
2019-05-07T04:23:22.947Z,11.03
2019-05-07T04:25:54.629Z,7.80
2019-05-07T04:28:28.650Z,7.60
2019-05-07T04:31:02.930Z,5.50
2019-05-07T04:33:36.097Z,7.70
2019-05-07T04:36:08.819Z,6.87
2019-05-07T04:38:43.930Z,5.67
2019-05-07T04:41:16.389Z,8.70
2019-05-07T04:43:47.814Z,8.10
2019-05-07T04:46:19.468Z,9.10
2019-05-07T04:48:52.848Z,11.87
2019-05-07T04:51:25.588Z,10.10
2019-05-07T04:53:58.558Z,8.67
2019-05-07T04:56:30.013Z,7.73
2019-05-07T04:59:03.649Z,8.50
2019-05-07T05:01:38.142Z,6.10
2019-05-07T05:04:25.816Z,7.87
2019-05-07T05:06:44.432Z,5.27
2019-05-07T05:09:15.781Z,12.77
2019-05-07T05:11:47.166Z,4.90
2019-05-07T05:14:18.375Z,6.40
2019-05-07T05:16:52.495Z,7.00
2019-05-07T05:19:24.012Z,7.47
2019-05-07T05:21:56.950Z,5.43
2019-05-07T05:24:32.802Z,7.27
2019-05-07T05:27:05.136Z,6.67
2019-05-07T05:29:38.754Z,7.30
2019-05-07T05:32:12.050Z,5.00
2019-05-07T05:34:43.881Z,6.70
2019-05-07T05:37:16.679Z,5.87
2019-05-07T05:40:02.508Z,7.80
2019-05-07T05:42:24.273Z,9.07
2019-05-07T05:44:56.200Z,8.67
2019-05-07T05:47:27.812Z,8.77
2019-05-07T05:50:01.891Z,5.13
2019-05-07T05:52:34.144Z,5.63
2019-05-07T05:55:08.368Z,9.77
2019-05-07T05:57:42.414Z,7.60
2019-05-07T06:00:16.391Z,8.27
2019-05-07T06:02:52.945Z,7.27
2019-05-07T06:05:24.246Z,8.27
2019-05-07T06:07:57.530Z,6.37
2019-05-07T06:10:32.890Z,6.57
2019-05-07T06:13:05.529Z,8.37
2019-05-07T06:15:39.171Z,6.40
2019-05-07T06:18:20.997Z,5.60
2019-05-07T06:20:49.097Z,6.83
2019-05-07T06:23:22.522Z,8.03
2019-05-07T06:25:54.259Z,4.72
2019-05-07T06:28:26.230Z,3.37
2019-05-07T06:30:57.991Z,10.13
2019-05-07T06:33:32.284Z,3.37
2019-05-07T06:36:04.367Z,5.13
2019-05-07T06:38:37.252Z,8.83
2019-05-07T06:41:12.252Z,3.90
2019-05-07T06:43:45.509Z,6.40
2019-05-07T06:46:17.597Z,3.50
2019-05-07T06:48:49.218Z,5.37
2019-05-07T06:51:22.070Z,6.07
2019-05-07T06:53:53.766Z,4.93
2019-05-07T06:56:26.648Z,4.30
2019-05-07T06:59:02.071Z,4.40
2019-05-07T07:01:34.430Z,2.53
2019-05-07T07:04:07.138Z,2.90
2019-05-07T07:06:42.664Z,4.60
2019-05-07T07:09:16.291Z,5.03
2019-05-07T07:11:49.702Z,3.67
2019-05-07T07:14:22.739Z,3.47
2019-05-07T07:16:55.632Z,4.60
2019-05-07T07:19:32.035Z,2.75
2019-05-07T07:22:04.608Z,2.08
2019-05-07T07:24:36.559Z,3.08
2019-05-07T07:27:09.843Z,4.13
2019-05-07T07:29:44.993Z,1.95
2019-05-07T07:32:22.170Z,1.67
2019-05-07T07:34:55.194Z,5.20
2019-05-07T07:37:29.433Z,2.77
2019-05-07T07:40:02.945Z,6.80
2019-05-07T07:42:36.033Z,3.47
2019-05-07T07:45:12.384Z,4.83
2019-05-07T07:47:44.604Z,6.78
2019-05-07T07:50:16.930Z,13.10
2019-05-07T07:52:49.091Z,101.15
2019-05-07T07:55:23.078Z,49.38
2019-05-07T07:57:56.876Z,7.80
2019-05-07T08:00:32.785Z,3.30
2019-05-07T08:03:06.986Z,75.03
2019-05-07T08:05:45.198Z,5.75
2019-05-07T08:08:16.800Z,2.90
2019-05-07T08:10:48.516Z,6.10
2019-05-07T08:13:19.866Z,4.87
2019-05-07T08:15:53.801Z,9.05
2019-05-07T08:18:25.536Z,6.42
2019-05-07T08:20:58.211Z,6.62
2019-05-07T08:23:31.986Z,6.92
2019-05-07T08:26:05.341Z,5.37
2019-05-07T08:28:38.663Z,5.40
2019-05-07T08:31:12.058Z,5.78
2019-05-07T08:33:45.087Z,8.90
2019-05-07T08:36:18.109Z,3.42
2019-05-07T08:38:52.724Z,5.75
2019-05-07T08:41:28.116Z,8.20
2019-05-07T08:44:11.695Z,5.40
2019-05-07T08:46:36.041Z,2.55
2019-05-07T08:49:12.139Z,4.33
2019-05-07T08:51:46.533Z,7.10
2019-05-07T08:54:18.418Z,5.15
2019-05-07T08:56:52.772Z,4.33
2019-05-07T08:59:25.297Z,5.80
2019-05-07T09:01:58.515Z,6.50
2019-05-07T09:04:32.627Z,6.60
2019-05-07T09:07:04.283Z,5.42
2019-05-07T09:09:36.031Z,3.08
2019-05-07T09:12:07.457Z,2.98
2019-05-07T09:14:42.334Z,8.43
2019-05-07T09:17:13.328Z,3.45
2019-05-07T09:19:51.512Z,3.98
2019-05-07T09:22:19.284Z,3.17
2019-05-07T09:24:53.295Z,5.35
2019-05-07T09:27:26.216Z,3.33
2019-05-07T09:30:02.692Z,4.30
2019-05-07T09:32:38.120Z,3.65
2019-05-07T09:35:12.503Z,3.58
2019-05-07T09:37:45.338Z,3.20
2019-05-07T09:40:17.990Z,4.37
2019-05-07T09:42:49.567Z,3.40
2019-05-07T09:45:22.448Z,3.60
2019-05-07T09:47:54.304Z,3.55
2019-05-07T09:50:25.900Z,2.92
2019-05-07T09:52:57.856Z,10.80
2019-05-07T09:55:32.598Z,5.85
2019-05-07T09:58:04.182Z,7.67
2019-05-07T10:00:39.873Z,7.60
2019-05-07T10:03:12.729Z,2.62
2019-05-07T10:05:45.908Z,2.70
2019-05-07T10:08:17.863Z,4.20
2019-05-07T10:13:26.303Z,3.80
2019-05-07T10:15:59.440Z,3.40
2019-05-07T10:28:36.954Z,5.50
2019-05-07T10:31:09.968Z,1.70
2019-05-07T10:36:16.525Z,3.20
2019-05-07T10:38:48.078Z,2.40
2019-05-07T10:41:22.369Z,3.08
2019-05-07T10:43:54.186Z,2.30
2019-05-07T10:46:25.431Z,2.45
2019-05-07T10:49:01.789Z,4.33
2019-05-07T10:51:33.264Z,6.20
2019-05-07T10:54:06.208Z,2.00
2019-05-07T10:56:37.969Z,3.75
2019-05-07T10:59:12.046Z,4.45
2019-05-07T11:14:25.162Z,3.45
2019-05-07T11:16:58.492Z,1.85
2019-05-07T11:19:32.412Z,3.17
2019-05-07T11:22:06.317Z,3.52
2019-05-07T11:24:38.394Z,1.60
2019-05-07T11:27:11.909Z,3.10
2019-05-07T11:29:43.607Z,3.20
2019-05-07T11:32:16.597Z,2.10
2019-05-07T11:34:49.323Z,2.52
2019-05-07T11:37:22.618Z,5.10
2019-05-07T11:39:55.816Z,4.13
2019-05-07T11:42:30.282Z,4.12
2019-05-07T11:45:03.254Z,2.05
2019-05-07T11:47:36.130Z,6.00
2019-05-07T18:48:59.716Z,14.10
2019-05-07T18:54:03.731Z,10.30
2019-05-07T18:56:44.224Z,7.90
2019-05-07T19:01:53.909Z,9.70
2019-05-07T19:04:25.185Z,12.70
2019-05-07T19:06:56.940Z,21.50
2019-05-07T19:11:59.712Z,16.20
2019-05-07T19:17:03.308Z,48.13
2019-05-07T19:22:06.752Z,25.50
2019-05-07T19:24:45.238Z,27.60
2019-05-07T19:27:12.718Z,17.98
2019-05-07T19:29:45.865Z,16.40
2019-05-07T19:32:16.983Z,11.20
2019-05-07T19:37:19.785Z,9.20
2019-05-07T19:42:27.164Z,5.50
2019-05-07T19:45:12.780Z,14.60
2019-05-07T19:47:43.814Z,6.30
2019-05-07T19:50:16.021Z,26.17
2019-05-07T19:52:48.652Z,44.80
2019-05-07T19:55:22.037Z,33.35
2019-05-07T19:57:55.012Z,110.08
2019-05-07T20:00:28.934Z,40.85
2019-05-07T20:05:37.253Z,18.02
2019-05-07T20:08:08.672Z,19.90
2019-05-07T20:10:42.231Z,43.30
2019-05-07T20:13:14.633Z,10.23
2019-05-07T20:15:49.054Z,9.57
2019-05-07T20:18:22.011Z,8.85
2019-05-07T20:21:04.000Z,9.70
2019-05-07T20:23:35.775Z,12.33
2019-05-07T20:26:22.900Z,9.18
2019-05-07T20:29:12.307Z,13.93
2019-05-07T20:31:48.701Z,10.32
2019-05-07T20:34:22.110Z,10.32
2019-05-07T20:37:12.934Z,8.35
2019-05-07T20:39:55.644Z,7.80
2019-05-07T20:42:56.936Z,6.17
2019-05-07T20:45:47.736Z,6.30
2019-05-07T20:48:22.750Z,7.50
2019-05-07T20:50:54.695Z,4.90
2019-05-07T20:53:36.289Z,9.85
2019-05-07T20:56:15.945Z,12.03
2019-05-07T20:58:47.089Z,11.63
2019-05-07T21:01:18.233Z,10.28
2019-05-07T21:03:52.741Z,11.00
2019-05-07T21:06:27.034Z,8.88
2019-05-07T21:09:00.434Z,13.72
2019-05-07T21:11:33.984Z,11.53
2019-05-07T21:14:06.466Z,14.38
2019-05-07T21:16:42.623Z,13.00
2019-05-07T21:19:14.667Z,8.63
2019-05-07T21:21:47.222Z,10.30
2019-05-07T21:24:22.392Z,8.15
2019-05-07T21:26:53.310Z,9.10
2019-05-07T21:29:25.100Z,14.60
2019-05-07T21:31:57.515Z,8.57
2019-05-07T21:34:29.099Z,10.97
2019-05-07T21:37:03.076Z,15.93
2019-05-07T21:39:34.507Z,11.40
2019-05-07T21:42:06.963Z,9.37
2019-05-07T21:44:39.361Z,13.10
2019-05-07T21:47:12.665Z,11.63
2019-05-07T21:49:46.115Z,17.73
2019-05-07T21:52:19.524Z,46.27
2019-05-07T21:54:52.713Z,62.63
2019-05-07T21:57:27.285Z,17.40
2019-05-07T22:00:02.289Z,9.83
2019-05-07T22:02:35.238Z,8.90
2019-05-07T22:05:07.637Z,8.60
2019-05-07T22:07:39.936Z,8.83
2019-05-07T22:10:12.804Z,12.33
2019-05-07T22:12:46.034Z,13.33
2019-05-07T22:15:22.285Z,8.17
2019-05-07T22:17:53.836Z,12.47
2019-05-07T22:20:26.528Z,13.60
2019-05-07T22:22:58.815Z,16.50
2019-05-07T22:25:32.833Z,13.60
2019-05-07T22:28:05.699Z,18.10
2019-05-07T22:30:41.778Z,15.30
2019-05-07T22:33:14.553Z,12.40
2019-05-07T22:35:48.201Z,15.17
2019-05-07T22:38:22.806Z,10.87
2019-05-07T22:40:55.041Z,11.33
2019-05-07T22:43:27.125Z,18.57
2019-05-07T22:45:59.118Z,13.55
2019-05-07T22:48:32.551Z,17.73
2019-05-07T22:51:04.941Z,24.83
2019-05-07T22:53:36.847Z,24.07
2019-05-07T22:56:08.820Z,57.87
2019-05-07T22:58:43.539Z,34.20
2019-05-07T23:01:17.842Z,34.67
2019-05-07T23:03:51.853Z,48.90
2019-05-07T23:06:23.415Z,68.27
2019-05-07T23:08:55.270Z,96.30
2019-05-07T23:11:26.158Z,86.27
2019-05-07T23:13:58.740Z,71.33
2019-05-07T23:16:32.468Z,54.90
2019-05-07T23:19:04.664Z,23.77
2019-05-07T23:21:36.278Z,20.53
2019-05-07T23:24:07.886Z,18.63
2019-05-07T23:26:49.677Z,19.70
2019-05-07T23:29:13.785Z,19.53
2019-05-07T23:31:45.597Z,18.93
2019-05-07T23:34:18.739Z,21.70
2019-05-07T23:36:50.251Z,22.47
2019-05-07T23:39:23.943Z,24.67
2019-05-07T23:41:58.078Z,32.10
2019-05-07T23:44:29.947Z,28.37
2019-05-07T23:47:02.733Z,33.83
2019-05-07T23:49:36.339Z,33.70
2019-05-07T23:52:08.403Z,38.23
2019-05-07T23:54:42.527Z,33.77
2019-05-07T23:57:15.371Z,39.50
2019-05-07T23:59:47.094Z,41.03
